createdAt,value
2017-05-07T00:00:02.712Z,1000.16
2017-05-07T00:10:02.706Z,1000.01
2017-05-07T00:20:02.459Z,1000.07
2017-05-07T00:30:02.878Z,999.94
2017-05-07T00:40:02.826Z,999.94
2017-05-07T00:50:02.424Z,999.89
2017-05-07T01:00:02.854Z,1000
2017-05-07T01:10:02.945Z,1000.02
2017-05-07T01:20:02.682Z,999.98
2017-05-07T01:30:03.141Z,999.9
2017-05-07T01:40:03.187Z,1000
2017-05-07T01:50:02.929Z,1000
2017-05-07T02:00:02.361Z,1000
2017-05-07T02:10:03.374Z,1000.1
2017-05-07T02:20:02.679Z,1000.05
2017-05-07T02:30:03.136Z,1000.02
2017-05-07T02:40:02.887Z,1000
2017-05-07T02:50:02.673Z,1000.05
2017-05-07T03:00:03.130Z,1000.03
2017-05-07T03:10:03.184Z,1000.04
2017-05-07T03:20:02.422Z,1000.03
2017-05-07T03:30:02.917Z,1000.06
2017-05-07T03:40:03.274Z,1000.04
2017-05-07T03:50:03.157Z,999.92
2017-05-07T04:00:02.607Z,1000.07
2017-05-07T04:10:02.669Z,1000.13
2017-05-07T04:20:03.208Z,1000.03
2017-05-07T04:30:02.690Z,1000.1
2017-05-07T04:40:02.650Z,1000.1
2017-05-07T04:50:03.296Z,1000.17
2017-05-07T05:00:02.780Z,1000.18
2017-05-07T05:10:02.493Z,1000.36
2017-05-07T05:20:03.061Z,1000.45
2017-05-07T05:30:02.540Z,1000.45
2017-05-07T05:40:02.608Z,1000.63
2017-05-07T05:50:02.981Z,1000.62
2017-05-07T06:00:02.445Z,1000.67
2017-05-07T06:10:03.317Z,1000.9
2017-05-07T06:20:02.898Z,1000.95
2017-05-07T06:30:02.390Z,1000.94
2017-05-07T06:40:02.441Z,1001
2017-05-07T06:50:03.190Z,1001.03
2017-05-07T07:00:02.659Z,1001.03
2017-05-07T07:10:03.312Z,1001.07
2017-05-07T07:20:03.029Z,1001.04
2017-05-07T07:30:02.459Z,1001.14
2017-05-07T07:40:02.696Z,1001.12
2017-05-07T07:50:02.632Z,1001.13
2017-05-07T08:00:03.087Z,1001.12
2017-05-07T08:10:03.043Z,1001.03
2017-05-07T08:20:02.900Z,1001.18
2017-05-07T08:30:03.364Z,1001.39
2017-05-07T08:40:02.544Z,1001.38
2017-05-07T08:50:02.964Z,1001.46
2017-05-07T09:00:02.432Z,1001.45
2017-05-07T09:10:02.665Z,1001.45
2017-05-07T09:20:03.159Z,1001.54
2017-05-07T09:30:02.629Z,1001.54
2017-05-07T09:40:02.970Z,1001.54
2017-05-07T09:50:03.331Z,1001.52
2017-05-07T10:00:02.811Z,1001.5
2017-05-07T10:10:02.852Z,1001.61
2017-05-07T10:20:02.958Z,1001.55
2017-05-07T10:30:02.430Z,1001.63
2017-05-07T10:40:02.823Z,1001.54
2017-05-07T10:50:02.556Z,1001.63
2017-05-07T11:00:03.024Z,1001.48
2017-05-07T11:10:03.373Z,1001.5
2017-05-07T11:20:02.603Z,1001.55
2017-05-07T11:30:03.153Z,1001.51
2017-05-07T11:40:02.419Z,1001.53
2017-05-07T11:50:02.755Z,1001.45
2017-05-07T12:00:03.212Z,1001.47
2017-05-07T12:10:02.703Z,1001.39
2017-05-07T12:20:02.576Z,1001.53
2017-05-07T12:30:03.152Z,1001.42
2017-05-07T12:40:03.020Z,1001.54
2017-05-07T12:50:02.841Z,1001.54
2017-05-07T13:00:03.279Z,1001.55
2017-05-07T13:10:02.922Z,1001.54
2017-05-07T13:20:02.592Z,1001.38
2017-05-07T13:30:03.065Z,1001.45
2017-05-07T13:40:02.881Z,1001.41
2017-05-07T13:50:03.222Z,1001.38
2017-05-07T14:00:02.738Z,1001.28
2017-05-07T14:10:02.407Z,1001.13
2017-05-07T14:20:02.464Z,1001.03
2017-05-07T14:30:02.958Z,1000.92
2017-05-07T14:40:03.165Z,1000.98
2017-05-07T14:50:02.642Z,1000.91
2017-05-07T15:00:03.396Z,1001.02
2017-05-07T15:10:02.708Z,1000.93
2017-05-07T15:20:03.460Z,1000.94
2017-05-07T15:30:02.959Z,1000.89
2017-05-07T15:40:03.344Z,1000.82
2017-05-07T15:50:02.773Z,1000.81
2017-05-07T16:00:03.246Z,1000.7
2017-05-07T16:10:03.208Z,1000.73
2017-05-07T16:20:02.773Z,1000.66
2017-05-07T16:30:03.248Z,1000.76
2017-05-07T16:40:02.448Z,1000.91
2017-05-07T16:50:02.835Z,1000.82
2017-05-07T17:00:03.262Z,1000.87
2017-05-07T17:10:02.525Z,1000.89
2017-05-07T17:20:02.743Z,1001.11
2017-05-07T17:30:03.224Z,1001.09
2017-05-07T17:40:02.501Z,1001.23
2017-05-07T17:50:02.728Z,1001.26
2017-05-07T18:00:03.182Z,1001.32
2017-05-07T18:10:02.630Z,1001.5
2017-05-07T18:20:03.314Z,1001.45
2017-05-07T18:30:02.765Z,1001.59
2017-05-07T18:40:03.031Z,1001.61
2017-05-07T18:50:03.045Z,1001.63
2017-05-07T19:00:02.469Z,1001.7
2017-05-07T19:10:03.014Z,1001.84
2017-05-07T19:20:02.579Z,1001.97
2017-05-07T19:30:03.046Z,1001.99
2017-05-07T19:40:02.532Z,1002.15
2017-05-07T19:50:02.784Z,1002.1
2017-05-07T20:00:03.179Z,1002.23
2017-05-07T20:10:02.643Z,1002.18
2017-05-07T20:20:02.671Z,1002.25
2017-05-07T20:30:03.155Z,1002.3
2017-05-07T20:40:02.470Z,1002.26
2017-05-07T20:50:03.231Z,1002.38
2017-05-07T21:00:02.695Z,1002.44
2017-05-07T21:10:02.978Z,1002.26
2017-05-07T21:20:03.274Z,1002.48
2017-05-07T21:30:02.716Z,1002.35
2017-05-07T21:40:03.314Z,1002.43
2017-05-07T21:50:03.194Z,1002.51
2017-05-07T22:00:02.657Z,1002.55
2017-05-07T22:10:03.036Z,1002.67
2017-05-07T22:20:02.653Z,1002.63
2017-05-07T22:30:03.159Z,1002.75
2017-05-07T22:40:02.367Z,1002.83
2017-05-07T22:50:03.061Z,1002.88
2017-05-07T23:00:02.490Z,1003.02
2017-05-07T23:10:02.453Z,1003.01
2017-05-07T23:20:02.974Z,1003.18
2017-05-07T23:30:02.447Z,1003.24
2017-05-07T23:40:02.925Z,1003.13
2017-05-07T23:50:03.304Z,1003.31
